sensor_id;sensor_type;location;lat;lon;timestamp;temperature;humidity
678;DHT22;321;48.814;9.132;2023-07-13T00:01:04;21.60;99.30
678;DHT22;321;48.814;9.132;2023-07-13T00:03:29;21.50;99.60
678;DHT22;321;48.814;9.132;2023-07-13T00:06:01;21.40;99.10
678;DHT22;321;48.814;9.132;2023-07-13T00:08:29;21.40;99.70
678;DHT22;321;48.814;9.132;2023-07-13T00:10:55;21.40;99.70
678;DHT22;321;48.814;9.132;2023-07-13T00:13:21;21.40;99.30
678;DHT22;321;48.814;9.132;2023-07-13T00:15:46;21.40;99.50
678;DHT22;321;48.814;9.132;2023-07-13T00:18:12;21.30;99.30
678;DHT22;321;48.814;9.132;2023-07-13T00:20:38;21.30;99.30
678;DHT22;321;48.814;9.132;2023-07-13T00:23:03;21.20;99.60
678;DHT22;321;48.814;9.132;2023-07-13T00:25:29;21.20;99.50
678;DHT22;321;48.814;9.132;2023-07-13T00:27:55;21.00;99.70
678;DHT22;321;48.814;9.132;2023-07-13T00:30:20;21.00;99.90
678;DHT22;321;48.814;9.132;2023-07-13T00:32:46;20.80;99.90
678;DHT22;321;48.814;9.132;2023-07-13T00:35:13;20.80;99.90
678;DHT22;321;48.814;9.132;2023-07-13T00:37:39;20.70;99.90
678;DHT22;321;48.814;9.132;2023-07-13T00:40:05;20.50;99.90
678;DHT22;321;48.814;9.132;2023-07-13T00:42:32;20.50;99.90
678;DHT22;321;48.814;9.132;2023-07-13T00:45:02;20.40;99.90
678;DHT22;321;48.814;9.132;2023-07-13T00:47:28;20.50;99.90
678;DHT22;321;48.814;9.132;2023-07-13T00:49:54;20.50;99.90
678;DHT22;321;48.814;9.132;2023-07-13T00:52:19;20.50;99.90
678;DHT22;321;48.814;9.132;2023-07-13T00:54:46;20.50;99.90
678;DHT22;321;48.814;9.132;2023-07-13T00:57:18;20.50;99.90
678;DHT22;321;48.814;9.132;2023-07-13T00:59:49;20.50;99.90
678;DHT22;321;48.814;9.132;2023-07-13T01:02:16;20.50;99.90
678;DHT22;321;48.814;9.132;2023-07-13T01:04:42;20.60;99.90
678;DHT22;321;48.814;9.132;2023-07-13T01:07:10;20.50;99.90
678;DHT22;321;48.814;9.132;2023-07-13T01:09:37;20.40;99.90
678;DHT22;321;48.814;9.132;2023-07-13T01:12:03;20.40;99.90
678;DHT22;321;48.814;9.132;2023-07-13T01:14:28;20.40;99.90
678;DHT22;321;48.814;9.132;2023-07-13T01:16:54;20.30;99.90
678;DHT22;321;48.814;9.132;2023-07-13T01:19:39;20.30;99.90
678;DHT22;321;48.814;9.132;2023-07-13T01:22:07;20.30;99.80
678;DHT22;321;48.814;9.132;2023-07-13T01:24:38;20.20;99.90
678;DHT22;321;48.814;9.132;2023-07-13T01:27:06;20.10;99.90
678;DHT22;321;48.814;9.132;2023-07-13T01:29:32;20.00;99.90
678;DHT22;321;48.814;9.132;2023-07-13T01:31:58;19.90;99.90
678;DHT22;321;48.814;9.132;2023-07-13T01:34:27;19.90;99.90
678;DHT22;321;48.814;9.132;2023-07-13T01:36:53;19.90;99.90
678;DHT22;321;48.814;9.132;2023-07-13T01:39:22;19.90;99.90
678;DHT22;321;48.814;9.132;2023-07-13T01:41:48;19.80;99.90
678;DHT22;321;48.814;9.132;2023-07-13T01:44:13;19.80;99.90
678;DHT22;321;48.814;9.132;2023-07-13T01:46:39;19.80;99.90
678;DHT22;321;48.814;9.132;2023-07-13T01:49:05;19.80;99.90
678;DHT22;321;48.814;9.132;2023-07-13T01:51:30;19.80;99.90
678;DHT22;321;48.814;9.132;2023-07-13T01:53:56;19.70;99.90
678;DHT22;321;48.814;9.132;2023-07-13T01:56:22;19.60;99.90
678;DHT22;321;48.814;9.132;2023-07-13T01:58:47;19.40;99.90
678;DHT22;321;48.814;9.132;2023-07-13T02:01:13;19.20;99.90
678;DHT22;321;48.814;9.132;2023-07-13T02:03:39;19.20;99.90
678;DHT22;321;48.814;9.132;2023-07-13T02:06:05;19.10;99.90
678;DHT22;321;48.814;9.132;2023-07-13T02:08:32;19.20;99.90
678;DHT22;321;48.814;9.132;2023-07-13T02:10:57;19.20;99.90
678;DHT22;321;48.814;9.132;2023-07-13T02:13:23;19.20;99.90
678;DHT22;321;48.814;9.132;2023-07-13T02:15:52;19.20;99.90
678;DHT22;321;48.814;9.132;2023-07-13T02:18:17;19.10;99.90
678;DHT22;321;48.814;9.132;2023-07-13T02:20:43;19.10;99.90
678;DHT22;321;48.814;9.132;2023-07-13T02:23:09;19.00;99.90
678;DHT22;321;48.814;9.132;2023-07-13T02:25:34;19.00;99.90
678;DHT22;321;48.814;9.132;2023-07-13T02:28:00;19.00;99.90
678;DHT22;321;48.814;9.132;2023-07-13T02:30:27;18.90;99.90
678;DHT22;321;48.814;9.132;2023-07-13T02:32:55;18.90;99.90
678;DHT22;321;48.814;9.132;2023-07-13T02:35:21;18.80;99.90
678;DHT22;321;48.814;9.132;2023-07-13T02:37:46;18.80;99.90
678;DHT22;321;48.814;9.132;2023-07-13T02:40:12;18.70;99.90
678;DHT22;321;48.814;9.132;2023-07-13T02:42:37;18.60;99.90
678;DHT22;321;48.814;9.132;2023-07-13T02:45:03;18.60;99.90
678;DHT22;321;48.814;9.132;2023-07-13T02:47:29;18.40;99.90
678;DHT22;321;48.814;9.132;2023-07-13T02:49:54;18.50;99.90
678;DHT22;321;48.814;9.132;2023-07-13T02:52:20;18.40;99.90
678;DHT22;321;48.814;9.132;2023-07-13T02:54:45;18.40;99.90
678;DHT22;321;48.814;9.132;2023-07-13T02:57:11;18.50;99.90
678;DHT22;321;48.814;9.132;2023-07-13T02:59:36;18.50;99.90
678;DHT22;321;48.814;9.132;2023-07-13T03:02:02;18.50;99.90
678;DHT22;321;48.814;9.132;2023-07-13T03:04:28;18.30;99.90
678;DHT22;321;48.814;9.132;2023-07-13T03:06:54;18.50;99.90
678;DHT22;321;48.814;9.132;2023-07-13T03:09:22;18.50;99.90
678;DHT22;321;48.814;9.132;2023-07-13T03:11:48;18.20;99.90
678;DHT22;321;48.814;9.132;2023-07-13T03:14:14;18.20;99.90
678;DHT22;321;48.814;9.132;2023-07-13T03:16:39;18.20;99.90
678;DHT22;321;48.814;9.132;2023-07-13T03:19:05;18.10;99.90
678;DHT22;321;48.814;9.132;2023-07-13T03:21:31;18.10;99.90
678;DHT22;321;48.814;9.132;2023-07-13T03:23:56;18.20;99.90
678;DHT22;321;48.814;9.132;2023-07-13T03:26:22;18.20;99.90
678;DHT22;321;48.814;9.132;2023-07-13T03:28:48;18.20;99.90
678;DHT22;321;48.814;9.132;2023-07-13T03:31:17;18.30;99.90
678;DHT22;321;48.814;9.132;2023-07-13T03:33:43;18.20;99.90
678;DHT22;321;48.814;9.132;2023-07-13T03:36:14;18.30;99.90
678;DHT22;321;48.814;9.132;2023-07-13T03:38:41;18.50;99.90
678;DHT22;321;48.814;9.132;2023-07-13T03:41:07;18.50;99.90
678;DHT22;321;48.814;9.132;2023-07-13T03:43:32;18.60;99.90
678;DHT22;321;48.814;9.132;2023-07-13T03:45:58;18.70;99.90
678;DHT22;321;48.814;9.132;2023-07-13T03:48:23;18.80;99.90
678;DHT22;321;48.814;9.132;2023-07-13T03:50:49;18.80;99.90
678;DHT22;321;48.814;9.132;2023-07-13T03:53:15;18.80;99.90
678;DHT22;321;48.814;9.132;2023-07-13T03:55:41;18.90;99.90
678;DHT22;321;48.814;9.132;2023-07-13T04:00:54;18.80;99.90
678;DHT22;321;48.814;9.132;2023-07-13T04:03:21;18.90;99.90
678;DHT22;321;48.814;9.132;2023-07-13T04:05:46;18.90;99.90
678;DHT22;321;48.814;9.132;2023-07-13T04:08:12;18.90;99.90
678;DHT22;321;48.814;9.132;2023-07-13T04:10:38;18.90;99.90
678;DHT22;321;48.814;9.132;2023-07-13T04:13:04;18.90;99.90
678;DHT22;321;48.814;9.132;2023-07-13T04:15:31;18.90;99.90
678;DHT22;321;48.814;9.132;2023-07-13T04:17:57;18.90;99.90
678;DHT22;321;48.814;9.132;2023-07-13T04:20:25;18.80;99.90
678;DHT22;321;48.814;9.132;2023-07-13T04:22:51;18.90;99.90
678;DHT22;321;48.814;9.132;2023-07-13T04:25:17;19.00;99.90
678;DHT22;321;48.814;9.132;2023-07-13T04:27:42;19.00;99.90
678;DHT22;321;48.814;9.132;2023-07-13T04:30:08;19.10;99.90
678;DHT22;321;48.814;9.132;2023-07-13T04:32:34;19.10;99.90
678;DHT22;321;48.814;9.132;2023-07-13T04:34:59;19.10;99.90
678;DHT22;321;48.814;9.132;2023-07-13T04:37:25;19.30;99.90
678;DHT22;321;48.814;9.132;2023-07-13T04:39:51;19.40;99.90
678;DHT22;321;48.814;9.132;2023-07-13T04:42:17;19.40;99.90
678;DHT22;321;48.814;9.132;2023-07-13T04:44:48;19.30;99.90
678;DHT22;321;48.814;9.132;2023-07-13T04:47:13;19.30;99.90
678;DHT22;321;48.814;9.132;2023-07-13T04:49:39;19.20;99.90
678;DHT22;321;48.814;9.132;2023-07-13T04:52:05;19.10;99.90
678;DHT22;321;48.814;9.132;2023-07-13T04:54:33;19.10;99.90
678;DHT22;321;48.814;9.132;2023-07-13T04:56:58;19.10;99.90
678;DHT22;321;48.814;9.132;2023-07-13T04:59:24;19.10;99.90
678;DHT22;321;48.814;9.132;2023-07-13T05:01:50;19.00;99.90
678;DHT22;321;48.814;9.132;2023-07-13T05:04:16;19.10;99.90
678;DHT22;321;48.814;9.132;2023-07-13T05:06:47;19.00;99.90
678;DHT22;321;48.814;9.132;2023-07-13T05:09:13;19.10;99.90
678;DHT22;321;48.814;9.132;2023-07-13T05:14:07;19.60;99.90
678;DHT22;321;48.814;9.132;2023-07-13T05:16:35;20.00;99.90
678;DHT22;321;48.814;9.132;2023-07-13T05:19:01;20.60;99.90
678;DHT22;321;48.814;9.132;2023-07-13T05:21:27;22.30;99.90
678;DHT22;321;48.814;9.132;2023-07-13T05:23:55;20.90;99.90
678;DHT22;321;48.814;9.132;2023-07-13T05:26:21;20.90;99.90
678;DHT22;321;48.814;9.132;2023-07-13T05:28:47;21.20;99.90
678;DHT22;321;48.814;9.132;2023-07-13T05:31:13;21.20;99.90
678;DHT22;321;48.814;9.132;2023-07-13T05:33:42;21.40;99.90
678;DHT22;321;48.814;9.132;2023-07-13T05:36:08;21.10;99.90
678;DHT22;321;48.814;9.132;2023-07-13T05:38:36;21.70;99.90
678;DHT22;321;48.814;9.132;2023-07-13T05:41:05;21.70;99.90
678;DHT22;321;48.814;9.132;2023-07-13T05:43:31;21.90;99.90
678;DHT22;321;48.814;9.132;2023-07-13T05:45:57;22.30;99.90
678;DHT22;321;48.814;9.132;2023-07-13T05:48:29;21.90;99.90
678;DHT22;321;48.814;9.132;2023-07-13T05:50:54;21.90;99.90
678;DHT22;321;48.814;9.132;2023-07-13T05:55:47;21.90;99.90
678;DHT22;321;48.814;9.132;2023-07-13T05:58:13;22.00;99.90
678;DHT22;321;48.814;9.132;2023-07-13T06:03:06;22.40;99.90
678;DHT22;321;48.814;9.132;2023-07-13T06:05:32;22.40;98.60
678;DHT22;321;48.814;9.132;2023-07-13T06:07:59;22.80;99.90
678;DHT22;321;48.814;9.132;2023-07-13T06:12:50;23.60;99.90
678;DHT22;321;48.814;9.132;2023-07-13T06:22:35;24.90;99.30
678;DHT22;321;48.814;9.132;2023-07-13T06:25:00;26.00;98.20
678;DHT22;321;48.814;9.132;2023-07-13T06:27:26;28.00;87.10
678;DHT22;321;48.814;9.132;2023-07-13T06:42:02;32.40;91.30
678;DHT22;321;48.814;9.132;2023-07-13T06:44:28;33.60;86.10
678;DHT22;321;48.814;9.132;2023-07-13T06:46:53;35.50;79.80
678;DHT22;321;48.814;9.132;2023-07-13T06:49:19;35.70;70.50
678;DHT22;321;48.814;9.132;2023-07-13T06:56:36;35.70;70.80
678;DHT22;321;48.814;9.132;2023-07-13T06:59:02;36.30;68.10
678;DHT22;321;48.814;9.132;2023-07-13T07:01:27;35.60;58.60
678;DHT22;321;48.814;9.132;2023-07-13T07:06:20;37.90;45.50
678;DHT22;321;48.814;9.132;2023-07-13T07:08:49;38.60;48.60
678;DHT22;321;48.814;9.132;2023-07-13T07:11:22;39.10;41.40
678;DHT22;321;48.814;9.132;2023-07-13T07:13:48;39.70;40.70
678;DHT22;321;48.814;9.132;2023-07-13T07:16:14;40.20;40.20
678;DHT22;321;48.814;9.132;2023-07-13T07:18:40;41.00;50.20
678;DHT22;321;48.814;9.132;2023-07-13T07:21:06;41.00;37.40
678;DHT22;321;48.814;9.132;2023-07-13T07:23:32;40.40;36.80
678;DHT22;321;48.814;9.132;2023-07-13T07:30:52;35.80;60.40
678;DHT22;321;48.814;9.132;2023-07-13T07:35:45;35.20;42.40
678;DHT22;321;48.814;9.132;2023-07-13T07:38:10;35.30;44.70
678;DHT22;321;48.814;9.132;2023-07-13T07:40:37;35.70;44.40
678;DHT22;321;48.814;9.132;2023-07-13T07:43:03;37.00;41.00
678;DHT22;321;48.814;9.132;2023-07-13T07:45:29;39.00;40.80
678;DHT22;321;48.814;9.132;2023-07-13T07:47:54;40.70;36.20
678;DHT22;321;48.814;9.132;2023-07-13T07:50:24;41.50;34.80
678;DHT22;321;48.814;9.132;2023-07-13T07:52:50;42.00;33.90
678;DHT22;321;48.814;9.132;2023-07-13T07:55:16;43.20;32.30
678;DHT22;321;48.814;9.132;2023-07-13T07:57:41;43.50;30.60
678;DHT22;321;48.814;9.132;2023-07-13T08:00:07;44.70;32.10
678;DHT22;321;48.814;9.132;2023-07-13T08:02:33;45.70;29.40
678;DHT22;321;48.814;9.132;2023-07-13T08:04:59;46.30;29.10
678;DHT22;321;48.814;9.132;2023-07-13T08:07:24;46.30;27.80
678;DHT22;321;48.814;9.132;2023-07-13T08:09:52;46.80;27.90
678;DHT22;321;48.814;9.132;2023-07-13T08:12:18;47.10;28.20
678;DHT22;321;48.814;9.132;2023-07-13T08:14:43;47.40;27.10
678;DHT22;321;48.814;9.132;2023-07-13T08:17:09;47.20;26.70
678;DHT22;321;48.814;9.132;2023-07-13T08:19:34;47.60;27.50
678;DHT22;321;48.814;9.132;2023-07-13T08:22:00;46.80;27.00
678;DHT22;321;48.814;9.132;2023-07-13T08:24:25;46.50;27.40
678;DHT22;321;48.814;9.132;2023-07-13T08:26:51;46.70;27.30
678;DHT22;321;48.814;9.132;2023-07-13T08:29:18;45.90;33.10
678;DHT22;321;48.814;9.132;2023-07-13T08:31:43;45.90;27.30
678;DHT22;321;48.814;9.132;2023-07-13T08:34:10;45.70;28.30
678;DHT22;321;48.814;9.132;2023-07-13T08:36:36;45.20;28.00
678;DHT22;321;48.814;9.132;2023-07-13T08:39:01;44.30;28.20
678;DHT22;321;48.814;9.132;2023-07-13T08:41:28;44.10;27.80
678;DHT22;321;48.814;9.132;2023-07-13T08:43:58;43.60;29.10
678;DHT22;321;48.814;9.132;2023-07-13T08:46:38;43.00;28.20
678;DHT22;321;48.814;9.132;2023-07-13T08:49:11;42.50;31.00
678;DHT22;321;48.814;9.132;2023-07-13T08:51:58;42.50;28.90
678;DHT22;321;48.814;9.132;2023-07-13T08:54:28;42.00;28.80
678;DHT22;321;48.814;9.132;2023-07-13T08:56:57;41.40;30.80
678;DHT22;321;48.814;9.132;2023-07-13T08:59:27;41.60;29.80
678;DHT22;321;48.814;9.132;2023-07-13T09:04:50;41.70;29.40
678;DHT22;321;48.814;9.132;2023-07-13T09:07:40;41.30;29.00
678;DHT22;321;48.814;9.132;2023-07-13T09:10:32;41.40;30.40
678;DHT22;321;48.814;9.132;2023-07-13T09:13:23;40.90;29.40
678;DHT22;321;48.814;9.132;2023-07-13T09:15:51;40.50;29.20
678;DHT22;321;48.814;9.132;2023-07-13T09:18:36;40.50;30.70
678;DHT22;321;48.814;9.132;2023-07-13T09:21:03;40.00;30.00
678;DHT22;321;48.814;9.132;2023-07-13T09:23:30;39.60;31.40
678;DHT22;321;48.814;9.132;2023-07-13T09:26:04;38.20;41.00
678;DHT22;321;48.814;9.132;2023-07-13T09:28:35;38.40;31.30
678;DHT22;321;48.814;9.132;2023-07-13T09:31:15;38.10;31.50
678;DHT22;321;48.814;9.132;2023-07-13T09:33:41;38.00;32.40
678;DHT22;321;48.814;9.132;2023-07-13T09:38:45;38.30;50.60
678;DHT22;321;48.814;9.132;2023-07-13T09:44:13;38.60;32.40
678;DHT22;321;48.814;9.132;2023-07-13T09:46:44;36.30;51.60
678;DHT22;321;48.814;9.132;2023-07-13T09:49:11;36.90;39.80
678;DHT22;321;48.814;9.132;2023-07-13T09:51:43;37.10;56.90
678;DHT22;321;48.814;9.132;2023-07-13T09:54:21;36.80;36.90
678;DHT22;321;48.814;9.132;2023-07-13T09:56:54;36.30;34.30
678;DHT22;321;48.814;9.132;2023-07-13T09:59:23;36.60;48.20
678;DHT22;321;48.814;9.132;2023-07-13T10:01:49;36.70;50.80
678;DHT22;321;48.814;9.132;2023-07-13T10:04:19;37.20;52.60
678;DHT22;321;48.814;9.132;2023-07-13T10:06:46;38.40;51.90
678;DHT22;321;48.814;9.132;2023-07-13T10:09:17;38.90;53.40
678;DHT22;321;48.814;9.132;2023-07-13T10:14:18;40.50;50.20
678;DHT22;321;48.814;9.132;2023-07-13T10:16:46;40.70;49.00
678;DHT22;321;48.814;9.132;2023-07-13T10:19:16;40.80;51.60
678;DHT22;321;48.814;9.132;2023-07-13T10:24:37;40.40;31.40
678;DHT22;321;48.814;9.132;2023-07-13T10:27:20;39.90;30.00
678;DHT22;321;48.814;9.132;2023-07-13T10:30:01;39.30;32.20
678;DHT22;321;48.814;9.132;2023-07-13T10:32:27;36.80;33.30
678;DHT22;321;48.814;9.132;2023-07-13T10:34:53;36.30;33.30
678;DHT22;321;48.814;9.132;2023-07-13T10:37:23;36.50;35.70
678;DHT22;321;48.814;9.132;2023-07-13T10:39:52;36.70;36.20
678;DHT22;321;48.814;9.132;2023-07-13T10:42:35;36.40;35.00
678;DHT22;321;48.814;9.132;2023-07-13T10:45:10;36.30;36.00
678;DHT22;321;48.814;9.132;2023-07-13T10:47:37;36.10;36.50
678;DHT22;321;48.814;9.132;2023-07-13T10:50:05;36.20;36.30
678;DHT22;321;48.814;9.132;2023-07-13T10:52:45;36.30;35.50
678;DHT22;321;48.814;9.132;2023-07-13T10:55:32;36.50;37.60
678;DHT22;321;48.814;9.132;2023-07-13T10:58:03;36.20;35.90
678;DHT22;321;48.814;9.132;2023-07-13T11:00:44;35.90;36.20
678;DHT22;321;48.814;9.132;2023-07-13T11:03:15;35.60;37.00
678;DHT22;321;48.814;9.132;2023-07-13T11:05:42;34.80;39.30
678;DHT22;321;48.814;9.132;2023-07-13T11:08:32;34.70;38.50
678;DHT22;321;48.814;9.132;2023-07-13T11:10:59;34.80;36.80
678;DHT22;321;48.814;9.132;2023-07-13T11:16:37;34.70;37.30
678;DHT22;321;48.814;9.132;2023-07-13T11:21:32;35.00;37.20
678;DHT22;321;48.814;9.132;2023-07-13T11:32:00;34.10;37.70
678;DHT22;321;48.814;9.132;2023-07-13T11:34:30;33.80;38.20
678;DHT22;321;48.814;9.132;2023-07-13T11:36:57;33.00;38.90
678;DHT22;321;48.814;9.132;2023-07-13T11:39:35;32.40;56.40
678;DHT22;321;48.814;9.132;2023-07-13T11:42:07;32.40;40.40
678;DHT22;321;48.814;9.132;2023-07-13T11:44:35;31.60;39.10
678;DHT22;321;48.814;9.132;2023-07-13T11:47:09;31.70;39.40
678;DHT22;321;48.814;9.132;2023-07-13T11:49:43;32.10;39.00
678;DHT22;321;48.814;9.132;2023-07-13T11:52:13;33.00;40.40
678;DHT22;321;48.814;9.132;2023-07-13T11:55:00;33.60;40.30
678;DHT22;321;48.814;9.132;2023-07-13T11:57:37;34.40;39.10
678;DHT22;321;48.814;9.132;2023-07-13T12:00:15;35.10;39.40
678;DHT22;321;48.814;9.132;2023-07-13T12:02:45;35.20;38.40
678;DHT22;321;48.814;9.132;2023-07-13T12:05:15;35.40;37.20
678;DHT22;321;48.814;9.132;2023-07-13T12:07:43;34.90;36.10
678;DHT22;321;48.814;9.132;2023-07-13T12:10:17;34.30;53.50
678;DHT22;321;48.814;9.132;2023-07-13T12:12:48;34.20;36.90
678;DHT22;321;48.814;9.132;2023-07-13T12:15:14;32.80;55.10
678;DHT22;321;48.814;9.132;2023-07-13T12:17:41;33.30;39.30
678;DHT22;321;48.814;9.132;2023-07-13T12:20:23;32.80;38.90
678;DHT22;321;48.814;9.132;2023-07-13T12:22:50;32.10;40.40
678;DHT22;321;48.814;9.132;2023-07-13T12:25:17;31.40;40.60
678;DHT22;321;48.814;9.132;2023-07-13T12:27:50;31.00;41.70
678;DHT22;321;48.814;9.132;2023-07-13T12:30:28;30.90;42.30
678;DHT22;321;48.814;9.132;2023-07-13T12:33:07;30.70;41.70
678;DHT22;321;48.814;9.132;2023-07-13T12:35:40;30.50;42.10
678;DHT22;321;48.814;9.132;2023-07-13T12:38:10;30.40;42.30
678;DHT22;321;48.814;9.132;2023-07-13T12:40:36;30.30;42.80
678;DHT22;321;48.814;9.132;2023-07-13T12:43:03;29.90;43.70
678;DHT22;321;48.814;9.132;2023-07-13T12:45:32;29.50;60.60
678;DHT22;321;48.814;9.132;2023-07-13T12:48:03;29.50;44.30
678;DHT22;321;48.814;9.132;2023-07-13T12:50:50;29.40;43.90
678;DHT22;321;48.814;9.132;2023-07-13T12:53:19;29.20;44.60
678;DHT22;321;48.814;9.132;2023-07-13T12:56:01;29.10;61.00
678;DHT22;321;48.814;9.132;2023-07-13T12:58:39;29.10;45.60
678;DHT22;321;48.814;9.132;2023-07-13T13:01:10;29.00;45.40
678;DHT22;321;48.814;9.132;2023-07-13T13:03:40;29.00;61.00
678;DHT22;321;48.814;9.132;2023-07-13T13:06:24;29.00;44.30
678;DHT22;321;48.814;9.132;2023-07-13T13:08:55;29.00;63.60
678;DHT22;321;48.814;9.132;2023-07-13T13:11:22;28.90;45.70
678;DHT22;321;48.814;9.132;2023-07-13T13:13:49;28.80;60.60
678;DHT22;321;48.814;9.132;2023-07-13T13:16:30;28.70;62.00
678;DHT22;321;48.814;9.132;2023-07-13T13:18:59;28.80;61.00
678;DHT22;321;48.814;9.132;2023-07-13T13:23:53;28.50;45.30
678;DHT22;321;48.814;9.132;2023-07-13T13:26:23;28.30;44.10
678;DHT22;321;48.814;9.132;2023-07-13T13:28:49;28.10;61.80
678;DHT22;321;48.814;9.132;2023-07-13T13:31:15;28.30;61.80
678;DHT22;321;48.814;9.132;2023-07-13T13:33:42;28.30;45.50
678;DHT22;321;48.814;9.132;2023-07-13T13:36:17;28.10;45.40
678;DHT22;321;48.814;9.132;2023-07-13T13:38:44;28.20;46.20
678;DHT22;321;48.814;9.132;2023-07-13T13:41:12;28.30;45.70
678;DHT22;321;48.814;9.132;2023-07-13T13:43:39;28.30;46.30
678;DHT22;321;48.814;9.132;2023-07-13T13:46:13;28.20;63.20
678;DHT22;321;48.814;9.132;2023-07-13T13:48:40;28.20;63.30
678;DHT22;321;48.814;9.132;2023-07-13T13:51:22;28.50;45.50
678;DHT22;321;48.814;9.132;2023-07-13T13:53:49;28.50;46.20
678;DHT22;321;48.814;9.132;2023-07-13T13:56:16;28.50;46.40
678;DHT22;321;48.814;9.132;2023-07-13T13:58:43;28.70;62.10
678;DHT22;321;48.814;9.132;2023-07-13T14:01:20;28.40;62.90
678;DHT22;321;48.814;9.132;2023-07-13T14:03:47;28.40;64.10
678;DHT22;321;48.814;9.132;2023-07-13T14:06:15;28.30;63.50
678;DHT22;321;48.814;9.132;2023-07-13T14:08:41;28.40;65.00
678;DHT22;321;48.814;9.132;2023-07-13T14:11:11;28.00;58.00
678;DHT22;321;48.814;9.132;2023-07-13T14:13:42;28.20;58.10
678;DHT22;321;48.814;9.132;2023-07-13T14:16:16;28.10;65.30
678;DHT22;321;48.814;9.132;2023-07-13T14:18:46;28.10;53.60
678;DHT22;321;48.814;9.132;2023-07-13T14:21:20;28.00;46.70
678;DHT22;321;48.814;9.132;2023-07-13T14:23:46;27.70;58.00
678;DHT22;321;48.814;9.132;2023-07-13T14:26:18;28.10;63.30
678;DHT22;321;48.814;9.132;2023-07-13T14:28:47;28.10;63.20
678;DHT22;321;48.814;9.132;2023-07-13T14:31:15;27.80;46.80
678;DHT22;321;48.814;9.132;2023-07-13T14:33:41;27.80;58.30
678;DHT22;321;48.814;9.132;2023-07-13T14:36:28;27.90;63.10
678;DHT22;321;48.814;9.132;2023-07-13T14:38:56;27.20;66.40
678;DHT22;321;48.814;9.132;2023-07-13T14:41:22;27.80;65.40
678;DHT22;321;48.814;9.132;2023-07-13T14:43:48;27.60;67.10
678;DHT22;321;48.814;9.132;2023-07-13T14:46:32;27.50;48.00
678;DHT22;321;48.814;9.132;2023-07-13T14:49:11;27.40;47.40
678;DHT22;321;48.814;9.132;2023-07-13T14:51:38;27.20;59.50
678;DHT22;321;48.814;9.132;2023-07-13T14:54:05;27.20;68.50
678;DHT22;321;48.814;9.132;2023-07-13T14:56:31;26.90;61.20
678;DHT22;321;48.814;9.132;2023-07-13T14:58:57;26.90;65.90
678;DHT22;321;48.814;9.132;2023-07-13T15:01:23;26.70;66.00
678;DHT22;321;48.814;9.132;2023-07-13T15:03:51;26.70;64.90
678;DHT22;321;48.814;9.132;2023-07-13T15:06:17;26.60;50.10
678;DHT22;321;48.814;9.132;2023-07-13T15:08:44;26.70;68.20
678;DHT22;321;48.814;9.132;2023-07-13T15:11:10;26.90;66.10
678;DHT22;321;48.814;9.132;2023-07-13T15:13:38;26.70;69.80
678;DHT22;321;48.814;9.132;2023-07-13T15:16:04;26.90;69.20
678;DHT22;321;48.814;9.132;2023-07-13T15:18:30;26.90;61.10
678;DHT22;321;48.814;9.132;2023-07-13T15:20:56;26.80;61.90
678;DHT22;321;48.814;9.132;2023-07-13T15:23:25;26.80;62.80
678;DHT22;321;48.814;9.132;2023-07-13T15:25:51;26.60;49.10
678;DHT22;321;48.814;9.132;2023-07-13T15:28:17;26.50;47.90
678;DHT22;321;48.814;9.132;2023-07-13T15:30:48;26.60;48.20
678;DHT22;321;48.814;9.132;2023-07-13T15:33:19;26.60;49.30
678;DHT22;321;48.814;9.132;2023-07-13T15:35:47;26.60;49.20
678;DHT22;321;48.814;9.132;2023-07-13T15:38:19;26.60;48.90
678;DHT22;321;48.814;9.132;2023-07-13T15:40:47;26.60;61.70
678;DHT22;321;48.814;9.132;2023-07-13T15:43:15;26.50;62.60
678;DHT22;321;48.814;9.132;2023-07-13T15:45:42;26.50;54.00
678;DHT22;321;48.814;9.132;2023-07-13T15:48:22;26.60;49.80
678;DHT22;321;48.814;9.132;2023-07-13T15:50:51;26.50;67.20
678;DHT22;321;48.814;9.132;2023-07-13T15:53:24;26.30;67.00
678;DHT22;321;48.814;9.132;2023-07-13T15:55:51;26.50;66.50
678;DHT22;321;48.814;9.132;2023-07-13T15:58:18;26.20;62.40
678;DHT22;321;48.814;9.132;2023-07-13T16:03:11;26.20;62.30
678;DHT22;321;48.814;9.132;2023-07-13T16:05:38;26.10;48.60
678;DHT22;321;48.814;9.132;2023-07-13T16:08:05;26.10;63.70
678;DHT22;321;48.814;9.132;2023-07-13T16:10:34;25.90;69.30
678;DHT22;321;48.814;9.132;2023-07-13T16:13:01;26.00;59.10
678;DHT22;321;48.814;9.132;2023-07-13T16:17:53;25.80;63.40
678;DHT22;321;48.814;9.132;2023-07-13T16:20:20;25.80;49.50
678;DHT22;321;48.814;9.132;2023-07-13T16:22:48;25.80;69.30
678;DHT22;321;48.814;9.132;2023-07-13T16:27:40;25.80;69.00
678;DHT22;321;48.814;9.132;2023-07-13T16:30:22;25.90;69.90
678;DHT22;321;48.814;9.132;2023-07-13T16:32:48;25.80;69.50
678;DHT22;321;48.814;9.132;2023-07-13T16:35:23;25.10;62.40
678;DHT22;321;48.814;9.132;2023-07-13T16:37:49;25.10;65.80
678;DHT22;321;48.814;9.132;2023-07-13T16:40:27;25.70;64.70
678;DHT22;321;48.814;9.132;2023-07-13T16:42:54;25.40;50.90
678;DHT22;321;48.814;9.132;2023-07-13T16:45:23;25.80;72.00
678;DHT22;321;48.814;9.132;2023-07-13T16:47:51;25.40;65.30
678;DHT22;321;48.814;9.132;2023-07-13T16:50:22;25.40;52.10
678;DHT22;321;48.814;9.132;2023-07-13T16:52:48;25.50;72.20
678;DHT22;321;48.814;9.132;2023-07-13T16:55:15;25.60;71.80
678;DHT22;321;48.814;9.132;2023-07-13T16:57:43;25.50;66.00
678;DHT22;321;48.814;9.132;2023-07-13T17:00:16;25.50;72.80
678;DHT22;321;48.814;9.132;2023-07-13T17:02:44;25.00;65.10
678;DHT22;321;48.814;9.132;2023-07-13T17:05:10;25.30;73.10
678;DHT22;321;48.814;9.132;2023-07-13T17:07:37;25.20;73.10
678;DHT22;321;48.814;9.132;2023-07-13T17:10:04;24.90;67.00
678;DHT22;321;48.814;9.132;2023-07-13T17:12:30;25.20;66.50
678;DHT22;321;48.814;9.132;2023-07-13T17:14:56;25.20;65.80
678;DHT22;321;48.814;9.132;2023-07-13T17:17:40;25.30;73.10
678;DHT22;321;48.814;9.132;2023-07-13T17:20:16;25.30;67.60
678;DHT22;321;48.814;9.132;2023-07-13T17:22:42;25.10;72.30
678;DHT22;321;48.814;9.132;2023-07-13T17:25:12;25.10;52.50
678;DHT22;321;48.814;9.132;2023-07-13T17:27:39;24.60;67.40
678;DHT22;321;48.814;9.132;2023-07-13T17:30:05;24.90;74.30
678;DHT22;321;48.814;9.132;2023-07-13T17:32:33;25.00;52.30
678;DHT22;321;48.814;9.132;2023-07-13T17:34:59;24.90;65.10
678;DHT22;321;48.814;9.132;2023-07-13T17:37:25;25.00;69.40
678;DHT22;321;48.814;9.132;2023-07-13T17:39:51;24.80;74.40
678;DHT22;321;48.814;9.132;2023-07-13T17:42:16;24.70;53.50
678;DHT22;321;48.814;9.132;2023-07-13T17:44:42;24.70;67.60
678;DHT22;321;48.814;9.132;2023-07-13T17:47:24;24.70;73.80
678;DHT22;321;48.814;9.132;2023-07-13T17:49:50;24.80;62.80
678;DHT22;321;48.814;9.132;2023-07-13T17:52:16;24.70;76.30
678;DHT22;321;48.814;9.132;2023-07-13T17:54:42;24.50;68.40
678;DHT22;321;48.814;9.132;2023-07-13T17:57:07;25.00;76.70
678;DHT22;321;48.814;9.132;2023-07-13T17:59:33;24.90;60.70
678;DHT22;321;48.814;9.132;2023-07-13T18:01:58;24.80;71.40
678;DHT22;321;48.814;9.132;2023-07-13T18:04:24;24.80;76.80
678;DHT22;321;48.814;9.132;2023-07-13T18:06:51;24.80;54.60